createdAt,value
2016-12-11T00:01:31.009Z,92.61
2016-12-11T00:02:12.711Z,93.27
2016-12-11T00:02:54.395Z,92.41
2016-12-11T00:03:36.060Z,93.18
2016-12-11T00:04:17.801Z,93.18
2016-12-11T00:04:59.553Z,93.08
2016-12-11T00:05:41.300Z,93.27
2016-12-11T00:06:23.162Z,93.46
2016-12-11T00:07:04.604Z,93.55
2016-12-11T00:07:46.148Z,93.46
2016-12-11T00:08:27.961Z,93.37
2016-12-11T00:10:27.826Z,93.46
2016-12-11T00:11:09.515Z,93.27
2016-12-11T00:11:51.068Z,93.18
2016-12-11T00:12:32.829Z,92.99
2016-12-11T00:14:27.514Z,93.27
2016-12-11T00:16:21.845Z,92.41
2016-12-11T00:17:03.640Z,92.61
2016-12-11T00:17:45.195Z,92.51
2016-12-11T00:18:26.830Z,92.8
2016-12-11T00:20:16.231Z,92.8
2016-12-11T00:20:57.779Z,92.99
2016-12-11T00:21:39.359Z,92.8
2016-12-11T00:23:28.775Z,92.8
2016-12-11T00:24:10.025Z,92.8
2016-12-11T00:24:51.553Z,92.89
2016-12-11T00:25:33.219Z,92.7
2016-12-11T00:26:14.756Z,92.61
2016-12-11T00:26:56.004Z,92.61
2016-12-11T00:27:37.556Z,92.61
2016-12-11T00:28:19.269Z,92.7
2016-12-11T00:29:00.838Z,92.22
2016-12-11T00:29:42.513Z,92.32
2016-12-11T00:31:37.245Z,92.22
2016-12-11T00:32:18.996Z,92.7
2016-12-11T00:33:00.409Z,92.61
2016-12-11T00:35:15.813Z,92.13
2016-12-11T00:35:57.414Z,92.41
2016-12-11T00:37:57.282Z,92.32
2016-12-11T00:38:38.906Z,92.03
2016-12-11T00:39:20.433Z,92.61
2016-12-11T00:40:02.245Z,92.41
2016-12-11T00:40:43.831Z,91.85
2016-12-11T00:42:43.871Z,92.03
2016-12-11T00:43:25.542Z,92.03
2016-12-11T00:45:25.449Z,91.75
2016-12-11T00:46:07.203Z,91.56
2016-12-11T00:46:48.956Z,92.03
2016-12-11T00:48:38.284Z,92.03
2016-12-11T00:49:19.924Z,92.13
2016-12-11T00:50:01.625Z,92.22
2016-12-11T00:50:43.101Z,92.08
2016-12-11T00:52:32.451Z,91.99
2016-12-11T00:53:14.099Z,91.32
2016-12-11T00:53:55.663Z,91.51
2016-12-11T00:54:37.408Z,91.8
2016-12-11T00:55:18.993Z,91.8
2016-12-11T00:57:18.897Z,91.42
2016-12-11T00:58:00.528Z,91.61
2016-12-11T00:58:42.287Z,90.84
2016-12-11T00:59:24.017Z,90.84
2016-12-11T01:00:05.635Z,91.22
2016-12-11T01:02:05.617Z,90.94
2016-12-11T01:02:47.152Z,91.13
2016-12-11T01:03:28.971Z,91.22
2016-12-11T01:04:10.370Z,91.22
2016-12-11T01:04:51.909Z,91.03
2016-12-11T01:05:33.526Z,91.03
2016-12-11T01:07:48.486Z,90.94
2016-12-11T01:08:30.265Z,91.22
2016-12-11T01:09:11.945Z,90.75
2016-12-11T01:09:53.570Z,91.18
2016-12-11T01:10:35.287Z,90.94
2016-12-11T01:11:16.900Z,91.08
2016-12-11T01:11:58.478Z,91.22
2016-12-11T01:12:40.214Z,91.32
2016-12-11T01:13:21.784Z,91.22
2016-12-11T01:14:03.573Z,91.18
2016-12-11T01:14:45.228Z,91.28
2016-12-11T01:15:27.007Z,90.99
2016-12-11T01:16:08.762Z,90.99
2016-12-11T01:16:50.482Z,90.89
2016-12-11T01:17:32.280Z,91.28
2016-12-11T01:18:14.038Z,91.28
2016-12-11T01:18:55.767Z,91.03
2016-12-11T01:19:37.462Z,91.13
2016-12-11T01:20:19.228Z,90.89
2016-12-11T01:21:01.019Z,90.99
2016-12-11T01:21:42.762Z,90.99
2016-12-11T01:22:24.516Z,90.99
2016-12-11T01:23:06.204Z,91.18
2016-12-11T01:23:47.982Z,90.7
2016-12-11T01:24:29.749Z,91.28
2016-12-11T01:25:11.490Z,90.7
2016-12-11T01:25:53.262Z,90.99
2016-12-11T01:26:34.991Z,91.61
2016-12-11T01:27:16.768Z,90.84
2016-12-11T01:27:58.536Z,91.32
2016-12-11T01:28:40.314Z,90.94
2016-12-11T01:29:22.024Z,90.56
2016-12-11T01:30:03.773Z,90.94
2016-12-11T01:30:45.538Z,90.75
2016-12-11T01:31:27.233Z,91.22
2016-12-11T01:32:08.972Z,91.03
2016-12-11T01:32:50.603Z,91.03
2016-12-11T01:33:32.322Z,90.94
2016-12-11T01:34:14.118Z,91.13
2016-12-11T01:34:55.682Z,90.94
2016-12-11T01:35:37.430Z,90.84
2016-12-11T01:36:19.149Z,90.75
2016-12-11T01:37:00.915Z,91.13
2016-12-11T01:37:42.572Z,90.84
2016-12-11T01:38:24.398Z,90.66
2016-12-11T01:39:06.156Z,90.75
2016-12-11T01:39:47.913Z,90.94
2016-12-11T01:40:29.670Z,91.03
2016-12-11T01:41:11.432Z,90.75
2016-12-11T01:41:53.127Z,90.37
2016-12-11T01:42:34.870Z,90.56
2016-12-11T01:43:16.573Z,90.47
2016-12-11T01:43:58.258Z,90.47
2016-12-11T01:44:39.842Z,90.47
2016-12-11T01:45:21.535Z,90.37
2016-12-11T01:46:03.160Z,90.37
2016-12-11T01:46:44.929Z,90.56
2016-12-11T01:47:26.598Z,90.56
2016-12-11T01:48:08.213Z,90.37
2016-12-11T01:48:49.897Z,90.56
2016-12-11T01:49:31.645Z,90.08
2016-12-11T01:50:13.253Z,89.89
2016-12-11T01:50:54.638Z,90.08
2016-12-11T01:51:35.964Z,90.37
2016-12-11T01:52:17.535Z,89.51
2016-12-11T01:52:59.184Z,89.89
2016-12-11T01:53:40.953Z,89.99
2016-12-11T01:54:22.698Z,89.8
2016-12-11T01:55:04.430Z,89.7
2016-12-11T01:55:46.201Z,89.61
2016-12-11T01:56:27.881Z,89.7
2016-12-11T01:57:09.616Z,89.89
2016-12-11T01:57:51.365Z,89.27
2016-12-11T01:58:33.142Z,89.51
2016-12-11T01:59:14.912Z,89.23
2016-12-11T01:59:56.694Z,89.7
2016-12-11T02:00:38.344Z,89.51
2016-12-11T02:01:18.908Z,89.56
2016-12-11T02:01:59.434Z,88.99
2016-12-11T02:02:39.975Z,88.79
2016-12-11T02:03:20.507Z,88.79
2016-12-11T02:04:01.043Z,88.79
2016-12-11T02:04:41.571Z,88.89
2016-12-11T02:05:22.111Z,88.99
2016-12-11T02:06:02.637Z,88.99
2016-12-11T02:06:43.164Z,89.75
2016-12-11T02:07:23.706Z,89.7
2016-12-11T02:08:04.233Z,88.89
2016-12-11T02:08:44.769Z,88.99
2016-12-11T02:09:25.305Z,89.08
2016-12-11T02:10:05.840Z,88.79
2016-12-11T02:10:46.372Z,88.79
2016-12-11T02:11:26.915Z,88.79
2016-12-11T02:12:07.449Z,88.7
2016-12-11T02:12:47.983Z,89.18
2016-12-11T02:13:28.529Z,89.18
2016-12-11T02:14:09.067Z,89.18
2016-12-11T02:14:49.589Z,88.89
2016-12-11T02:15:30.138Z,88.89
2016-12-11T02:16:10.663Z,89.08
2016-12-11T02:16:51.196Z,89.27
2016-12-11T02:17:31.724Z,89.18
2016-12-11T02:18:12.262Z,89.08
2016-12-11T02:18:52.786Z,88.99
2016-12-11T02:19:33.313Z,89.18
2016-12-11T02:20:13.852Z,88.99
2016-12-11T02:20:54.385Z,89.08
2016-12-11T02:21:34.930Z,89.08
2016-12-11T02:22:15.472Z,88.79
2016-12-11T02:22:56.008Z,88.89
2016-12-11T02:23:36.543Z,89.18
2016-12-11T02:24:17.071Z,88.79
2016-12-11T02:24:57.612Z,89.27
2016-12-11T02:25:38.148Z,89.27
2016-12-11T02:26:18.682Z,89.08
2016-12-11T02:26:59.216Z,88.79
2016-12-11T02:27:39.749Z,88.89
2016-12-11T02:28:20.284Z,88.89
2016-12-11T02:29:00.821Z,88.99
2016-12-11T02:29:41.349Z,88.99
2016-12-11T02:30:21.885Z,88.89
2016-12-11T02:31:02.421Z,89.18
2016-12-11T02:31:42.965Z,89.27
2016-12-11T02:32:23.496Z,89.18
2016-12-11T02:33:04.042Z,88.99
2016-12-11T02:33:44.575Z,89.18
2016-12-11T02:34:25.106Z,89.18
2016-12-11T02:35:05.639Z,88.99
2016-12-11T02:35:46.176Z,89.18
2016-12-11T02:36:26.718Z,89.08
2016-12-11T02:37:07.249Z,89.27
2016-12-11T02:37:47.789Z,88.79
2016-12-11T02:38:28.327Z,88.7
2016-12-11T02:39:08.861Z,88.7
2016-12-11T02:39:49.396Z,88.51
2016-12-11T02:40:29.936Z,88.79
2016-12-11T02:41:10.471Z,88.99
2016-12-11T02:41:51.003Z,88.79
2016-12-11T02:42:31.536Z,88.7
2016-12-11T02:43:12.076Z,89.08
2016-12-11T02:43:52.614Z,88.89
2016-12-11T02:44:33.145Z,89.18
2016-12-11T02:45:14.575Z,88.04
2016-12-11T02:45:55.104Z,88.99
2016-12-11T02:46:35.629Z,89.08
2016-12-11T02:47:16.169Z,88.23
2016-12-11T02:47:56.701Z,89.27
2016-12-11T02:48:37.236Z,89.18
2016-12-11T02:49:17.758Z,88.23
2016-12-11T02:49:58.295Z,88.6
2016-12-11T02:50:38.836Z,88.51
2016-12-11T02:51:19.371Z,88.32
2016-12-11T02:51:59.907Z,88.51
2016-12-11T02:52:40.448Z,88.51
2016-12-11T02:53:20.987Z,88.51
2016-12-11T02:54:01.522Z,88.51
2016-12-11T02:54:42.064Z,88.32
2016-12-11T02:55:22.602Z,88.51
2016-12-11T02:56:03.138Z,87.89
2016-12-11T02:56:43.676Z,87.75
2016-12-11T02:57:24.213Z,88.08
2016-12-11T02:58:04.750Z,88.18
2016-12-11T02:58:45.288Z,87.89
2016-12-11T02:59:25.825Z,87.51
2016-12-11T03:00:06.355Z,87.7
2016-12-11T03:00:46.887Z,87.98
2016-12-11T03:01:27.421Z,87.98
2016-12-11T03:02:07.950Z,87.6
2016-12-11T03:02:48.491Z,87.79
2016-12-11T03:03:29.030Z,87.6
2016-12-11T03:04:09.558Z,86.94
2016-12-11T03:04:50.087Z,86.32
2016-12-11T03:05:30.626Z,86.32
2016-12-11T03:06:11.165Z,86.41
2016-12-11T03:06:51.700Z,86.12
2016-12-11T03:07:32.234Z,86.12
2016-12-11T03:08:12.767Z,85.64
2016-12-11T03:08:53.302Z,85.36
2016-12-11T03:09:33.837Z,85.46
2016-12-11T03:10:14.368Z,85.12
2016-12-11T03:10:54.905Z,85.69
2016-12-11T03:11:35.441Z,85.78
2016-12-11T03:12:15.982Z,85.78
2016-12-11T03:12:56.514Z,85.6
2016-12-11T03:13:37.050Z,85.31
2016-12-11T03:14:17.587Z,85.41
2016-12-11T03:14:58.118Z,85.12
2016-12-11T03:15:38.651Z,85.6
2016-12-11T03:16:19.189Z,85.88
2016-12-11T03:16:59.724Z,86.55
2016-12-11T03:17:40.263Z,87.12
2016-12-11T03:18:20.799Z,88.07
2016-12-11T03:19:01.334Z,88.36
2016-12-11T03:19:41.870Z,88.45
2016-12-11T03:20:22.410Z,89.12
2016-12-11T03:21:02.941Z,89.03
2016-12-11T03:21:43.477Z,89.65
2016-12-11T03:22:24.007Z,89.75
2016-12-11T03:23:04.573Z,89.55
2016-12-11T03:23:45.108Z,90.22
2016-12-11T03:24:25.631Z,90.31
2016-12-11T03:25:06.174Z,90.89
2016-12-11T03:25:46.708Z,90.89
2016-12-11T03:26:27.247Z,90.7
2016-12-11T03:27:07.795Z,91.17
2016-12-11T03:27:48.333Z,91.27
2016-12-11T03:28:28.863Z,91.46
2016-12-11T03:29:09.399Z,91.08
2016-12-11T03:29:49.928Z,91.55
2016-12-11T03:30:30.468Z,91.36
2016-12-11T03:31:11.007Z,91.65
2016-12-11T03:31:51.546Z,91.55
2016-12-11T03:32:32.081Z,92.03
2016-12-11T03:33:12.619Z,91.94
2016-12-11T03:33:53.153Z,91.74
2016-12-11T03:34:33.689Z,91.74
2016-12-11T03:35:14.225Z,91.84
2016-12-11T03:35:54.761Z,91.74
2016-12-11T03:36:35.300Z,91.55
2016-12-11T03:37:15.828Z,91.36
2016-12-11T03:37:56.365Z,91.55
2016-12-11T03:38:36.908Z,91.55
2016-12-11T03:39:17.452Z,91.74
2016-12-11T03:39:57.987Z,91.74
2016-12-11T03:40:38.525Z,92.6
2016-12-11T03:41:19.046Z,92.41
2016-12-11T03:41:59.578Z,92.13
2016-12-11T03:42:40.111Z,92.22
2016-12-11T03:43:20.641Z,92.41
2016-12-11T03:44:01.194Z,92.41
2016-12-11T03:44:41.732Z,92.41
2016-12-11T03:45:22.270Z,92.13
2016-12-11T03:46:02.798Z,91.94
2016-12-11T03:46:43.336Z,92.13
2016-12-11T03:47:23.878Z,92.13
2016-12-11T03:48:04.414Z,92.41
2016-12-11T03:48:44.952Z,91.94
2016-12-11T03:49:25.483Z,91.65
2016-12-11T03:50:06.016Z,91.94
2016-12-11T03:50:46.575Z,91.36
2016-12-11T03:51:27.117Z,91.74
2016-12-11T03:52:07.633Z,91.36
2016-12-11T03:52:48.159Z,91.27
2016-12-11T03:53:28.694Z,91.08
2016-12-11T03:54:09.227Z,91.46
2016-12-11T03:54:49.767Z,90.7
2016-12-11T03:55:30.304Z,90.89
2016-12-11T03:56:10.838Z,91.36
2016-12-11T03:56:51.379Z,91.46
2016-12-11T03:57:31.898Z,91.36
2016-12-11T03:58:12.441Z,91.55
2016-12-11T03:58:52.967Z,90.7
2016-12-11T03:59:33.499Z,90.89
2016-12-11T04:00:14.037Z,90.98
2016-12-11T04:00:54.588Z,90.89
2016-12-11T04:01:35.128Z,90.7
2016-12-11T04:02:15.667Z,90.89
2016-12-11T04:02:56.204Z,91.17
2016-12-11T04:03:36.744Z,90.79
2016-12-11T04:04:17.278Z,91.08
2016-12-11T04:04:57.811Z,90.7
2016-12-11T04:05:38.351Z,90.74
2016-12-11T04:06:18.894Z,90.74
2016-12-11T04:06:59.429Z,90.45
2016-12-11T04:07:39.951Z,90.45
2016-12-11T04:08:20.498Z,90.36
2016-12-11T04:09:01.037Z,90.74
2016-12-11T04:09:41.573Z,90.45
2016-12-11T04:10:22.115Z,89.69
2016-12-11T04:11:02.648Z,89.89
2016-12-11T04:11:43.181Z,89.98
2016-12-11T04:12:23.715Z,89.6
2016-12-11T04:13:04.252Z,89.89
2016-12-11T04:13:44.786Z,89.6
2016-12-11T04:14:25.321Z,89.89
2016-12-11T04:15:05.855Z,89.89
2016-12-11T04:15:46.390Z,89.79
2016-12-11T04:16:26.929Z,89.89
2016-12-11T04:17:07.465Z,89.89
2016-12-11T04:17:48.018Z,89.69
2016-12-11T04:18:28.549Z,89.79
2016-12-11T04:19:09.090Z,89.98
2016-12-11T04:19:49.630Z,90.26
2016-12-11T04:20:30.166Z,89.69
2016-12-11T04:21:10.709Z,90.45
2016-12-11T04:21:51.241Z,90.45
2016-12-11T04:22:31.881Z,90.08
2016-12-11T04:23:12.370Z,90.55
2016-12-11T04:23:52.902Z,90.74
2016-12-11T04:24:33.444Z,90.45
2016-12-11T04:25:13.985Z,90.45
2016-12-11T04:25:54.520Z,91.13
2016-12-11T04:26:35.056Z,91.31
2016-12-11T04:27:15.595Z,90.89
2016-12-11T04:27:56.132Z,91.88
2016-12-11T04:28:36.668Z,91.65
2016-12-11T04:29:17.208Z,91.94
2016-12-11T04:29:57.754Z,92.32
2016-12-11T04:30:38.292Z,92.41
2016-12-11T04:31:18.833Z,92.22
2016-12-11T04:31:59.367Z,92.03
2016-12-11T04:32:39.895Z,92.79
2016-12-11T04:33:20.435Z,92.32
2016-12-11T04:34:00.965Z,92.69
2016-12-11T04:34:41.498Z,92.41
2016-12-11T04:35:22.035Z,92.41
2016-12-11T04:36:02.628Z,92.13
2016-12-11T04:36:43.167Z,92.32
2016-12-11T04:37:23.701Z,92.32
2016-12-11T04:38:04.240Z,92.41
2016-12-11T04:38:44.779Z,92.41
2016-12-11T04:39:25.312Z,92.32
2016-12-11T04:40:05.842Z,92.79
2016-12-11T04:40:46.385Z,92.32
2016-12-11T04:41:26.923Z,92.03
2016-12-11T04:42:07.464Z,92.79
2016-12-11T04:42:48.002Z,92.89
2016-12-11T04:43:28.544Z,92.41
2016-12-11T04:44:09.084Z,92.5
2016-12-11T04:44:49.620Z,92.6
2016-12-11T04:45:30.159Z,92.41
2016-12-11T04:46:10.699Z,92.03
2016-12-11T04:46:51.237Z,91.94
2016-12-11T04:47:31.776Z,91.94
2016-12-11T04:48:12.315Z,91.94
2016-12-11T04:48:52.835Z,92.13
2016-12-11T04:49:33.371Z,92.6
2016-12-11T04:50:13.917Z,92.41
2016-12-11T04:50:54.451Z,92.5
2016-12-11T04:51:34.996Z,92.6
2016-12-11T04:52:15.523Z,92.6
2016-12-11T04:52:56.075Z,92.22
2016-12-11T04:53:36.621Z,92.41
2016-12-11T04:54:17.162Z,91.94
2016-12-11T04:54:57.705Z,91.08
2016-12-11T04:55:38.242Z,90.89
2016-12-11T04:56:18.775Z,90.5
2016-12-11T04:56:59.347Z,90.41
2016-12-11T04:57:39.856Z,89.55
2016-12-11T04:58:20.386Z,89.36
2016-12-11T04:59:00.922Z,89.07
2016-12-11T04:59:41.460Z,88.98
2016-12-11T05:00:22.000Z,89.26
2016-12-11T05:01:02.543Z,88.98
2016-12-11T05:01:43.065Z,89.32
2016-12-11T05:02:23.626Z,89.17
2016-12-11T05:03:04.132Z,88.7
2016-12-11T05:03:44.675Z,89.22
2016-12-11T05:04:25.212Z,88.84
2016-12-11T05:05:05.737Z,88.27
2016-12-11T05:05:46.279Z,88.65
2016-12-11T05:06:26.804Z,88.18
2016-12-11T05:07:07.349Z,88.08
2016-12-11T05:07:47.881Z,87.6
2016-12-11T05:08:28.421Z,86.75
2016-12-11T05:09:08.970Z,86.94
2016-12-11T05:09:49.512Z,86.94
2016-12-11T05:10:30.041Z,87.6
2016-12-11T05:11:10.620Z,87.03
2016-12-11T05:11:51.150Z,86.75
2016-12-11T05:12:31.684Z,87.03
2016-12-11T05:13:12.212Z,86.84
2016-12-11T05:13:52.748Z,86.94
2016-12-11T05:14:33.288Z,86.46
2016-12-11T05:15:13.805Z,87.23
2016-12-11T05:15:54.348Z,86.55
2016-12-11T05:16:34.890Z,86.65
2016-12-11T05:17:15.426Z,86.55
2016-12-11T05:17:55.959Z,86.46
2016-12-11T05:18:36.514Z,86.27
2016-12-11T05:19:17.089Z,85.8
2016-12-11T05:19:57.600Z,85.8
2016-12-11T05:20:38.140Z,86.36
2016-12-11T05:21:18.682Z,86.27
2016-12-11T05:21:59.221Z,86.36
2016-12-11T05:22:39.750Z,86.46
2016-12-11T05:23:20.280Z,86.46
2016-12-11T05:24:00.821Z,86.27
2016-12-11T05:24:41.357Z,86.36
2016-12-11T05:25:21.898Z,86.46
2016-12-11T05:26:02.432Z,85.99
2016-12-11T05:26:42.971Z,85.89
2016-12-11T05:27:23.512Z,86.55
2016-12-11T05:28:04.050Z,86.61
2016-12-11T05:28:44.587Z,86.55
2016-12-11T05:29:25.135Z,86.51
2016-12-11T05:30:05.646Z,86.46
2016-12-11T05:30:46.185Z,86.61
2016-12-11T05:31:26.734Z,86.27
2016-12-11T05:32:07.276Z,86.46
2016-12-11T05:32:47.834Z,86.8
2016-12-11T05:33:28.368Z,86.46
2016-12-11T05:34:08.905Z,86.55
2016-12-11T05:34:49.446Z,86.7
2016-12-11T05:35:29.989Z,86.9
2016-12-11T05:36:10.518Z,86.94
2016-12-11T05:36:51.051Z,86.84
2016-12-11T05:37:31.599Z,87.03
2016-12-11T05:38:12.129Z,87.08
2016-12-11T05:38:52.675Z,87.27
2016-12-11T05:39:33.220Z,87.56
2016-12-11T05:40:13.746Z,87.56
2016-12-11T05:40:54.278Z,87.56
2016-12-11T05:41:34.820Z,87.37
2016-12-11T05:42:15.362Z,87.37
2016-12-11T05:42:55.898Z,87.56
2016-12-11T05:43:36.421Z,87.08
2016-12-11T05:44:16.966Z,87.65
2016-12-11T05:44:57.502Z,87.18
2016-12-11T05:45:38.036Z,87.27
2016-12-11T05:46:18.574Z,87.37
2016-12-11T05:46:59.127Z,87.27
2016-12-11T05:47:39.662Z,87.27
2016-12-11T05:48:20.202Z,87.27
2016-12-11T05:49:00.751Z,87.18
2016-12-11T05:49:41.279Z,87.75
2016-12-11T05:50:21.811Z,87.27
2016-12-11T05:51:02.348Z,87.56
2016-12-11T05:51:42.887Z,87.27
2016-12-11T05:52:23.421Z,87.56
2016-12-11T05:53:03.968Z,87.08
2016-12-11T05:53:44.512Z,86.99
2016-12-11T05:54:25.108Z,87.27
2016-12-11T05:55:05.681Z,87.27
2016-12-11T05:55:46.297Z,87.37
2016-12-11T05:56:26.835Z,87.27
2016-12-11T05:57:07.375Z,86.99
2016-12-11T05:57:47.963Z,87.18
2016-12-11T05:58:28.488Z,87.65
2016-12-11T05:59:09.025Z,87.27
2016-12-11T05:59:49.560Z,88.04
2016-12-11T06:00:30.104Z,88.04
2016-12-11T06:01:10.638Z,87.85
2016-12-11T06:01:51.177Z,87.94
2016-12-11T06:02:31.713Z,87.65
2016-12-11T06:03:12.248Z,87.94
2016-12-11T06:03:52.776Z,87.94
2016-12-11T06:04:33.314Z,88.04
2016-12-11T06:05:13.887Z,88.04
2016-12-11T06:05:54.425Z,87.94
2016-12-11T06:06:34.963Z,87.75
2016-12-11T06:07:15.489Z,87.56
2016-12-11T06:07:56.031Z,87.65
2016-12-11T06:08:36.567Z,87.75
2016-12-11T06:09:17.097Z,87.75
2016-12-11T06:09:57.655Z,87.65
2016-12-11T06:10:38.312Z,88.04
2016-12-11T06:11:19.274Z,87.94
2016-12-11T06:12:00.454Z,88.13
2016-12-11T06:12:41.198Z,87.94
2016-12-11T06:13:21.798Z,88.13
2016-12-11T06:14:02.622Z,88.13
2016-12-11T06:14:43.319Z,88.13
2016-12-11T06:15:23.869Z,88.13
2016-12-11T06:16:04.413Z,87.85
2016-12-11T06:16:45.005Z,88.13
2016-12-11T06:17:25.637Z,88.13
2016-12-11T06:18:06.174Z,87.94
2016-12-11T06:18:46.995Z,88.04
2016-12-11T06:19:27.422Z,88.13
2016-12-11T06:20:07.959Z,88.04
2016-12-11T06:20:48.627Z,87.94
2016-12-11T06:21:29.335Z,87.85
2016-12-11T06:22:10.086Z,88.13
2016-12-11T06:22:50.760Z,87.85
2016-12-11T06:23:31.453Z,87.85
2016-12-11T06:24:11.991Z,88.04
2016-12-11T06:24:52.533Z,88.04
2016-12-11T06:25:33.067Z,88.23
2016-12-11T06:26:13.604Z,87.75
2016-12-11T06:26:54.146Z,88.79
2016-12-11T06:27:34.678Z,88.51
2016-12-11T06:28:15.208Z,87.85
2016-12-11T06:28:55.757Z,87.94
2016-12-11T06:29:36.288Z,88.42
2016-12-11T06:30:16.828Z,87.85
2016-12-11T06:30:57.355Z,88.51
2016-12-11T06:31:37.890Z,88.6
2016-12-11T06:32:18.430Z,88.51
2016-12-11T06:32:58.963Z,88.51
2016-12-11T06:33:39.518Z,88.32
2016-12-11T06:34:20.048Z,88.42
2016-12-11T06:35:00.593Z,88.23
2016-12-11T06:35:41.163Z,88.23
2016-12-11T06:36:21.689Z,88.51
2016-12-11T06:37:02.226Z,88.6
2016-12-11T06:37:42.762Z,88.23
2016-12-11T06:38:23.290Z,88.42
2016-12-11T06:39:03.831Z,88.99
2016-12-11T06:39:44.403Z,88.23
2016-12-11T06:40:24.934Z,89.08
2016-12-11T06:41:05.487Z,89.27
2016-12-11T06:41:46.015Z,88.42
2016-12-11T06:42:26.594Z,88.89
2016-12-11T06:43:07.292Z,88.99
2016-12-11T06:43:47.899Z,89.18
2016-12-11T06:44:28.429Z,89.27
2016-12-11T06:45:08.971Z,89.08
2016-12-11T06:45:49.555Z,88.89
2016-12-11T06:46:30.100Z,89.84
2016-12-11T06:47:10.817Z,89.37
2016-12-11T06:47:51.430Z,89.84
2016-12-11T06:48:32.058Z,89.56
2016-12-11T06:49:12.758Z,89.47
2016-12-11T06:49:53.451Z,89.47
2016-12-11T06:50:33.993Z,89.65
2016-12-11T06:51:14.532Z,90.03
2016-12-11T06:51:55.147Z,89.65
2016-12-11T06:52:35.811Z,89.56
2016-12-11T06:53:16.441Z,89.56
2016-12-11T06:53:57.246Z,90.28
2016-12-11T06:54:38.027Z,90.32
2016-12-11T06:55:18.962Z,90.51
2016-12-11T06:55:59.590Z,90.47
2016-12-11T06:56:40.114Z,90.32
2016-12-11T06:57:20.643Z,90.51
2016-12-11T06:58:01.288Z,90.47
2016-12-11T06:58:41.883Z,89.89
2016-12-11T06:59:22.687Z,89.89
2016-12-11T07:00:03.432Z,90.18
2016-12-11T07:00:43.980Z,90.61
2016-12-11T07:01:24.631Z,90.56
2016-12-11T07:02:05.317Z,90.42
2016-12-11T07:02:46.208Z,90.42
2016-12-11T07:03:26.979Z,90.32
2016-12-11T07:04:07.702Z,90.28
2016-12-11T07:04:48.238Z,90.13
2016-12-11T07:05:28.779Z,90.51
2016-12-11T07:06:09.704Z,90.8
2016-12-11T07:06:50.247Z,90.32
2016-12-11T07:07:30.787Z,90.18
2016-12-11T07:08:11.328Z,90.32
2016-12-11T07:08:51.863Z,90.13
2016-12-11T07:09:32.393Z,90.61
2016-12-11T07:10:12.936Z,90.61
2016-12-11T07:10:53.472Z,90.37
2016-12-11T07:11:34.069Z,90.42
2016-12-11T07:12:14.610Z,90.99
2016-12-11T07:12:55.162Z,90.56
2016-12-11T07:13:35.698Z,90.32
2016-12-11T07:14:16.233Z,90.37
2016-12-11T07:14:56.771Z,90.75
2016-12-11T07:15:37.556Z,91.08
2016-12-11T07:16:18.089Z,90.75
2016-12-11T07:16:58.627Z,90.37
2016-12-11T07:17:39.158Z,90.75
2016-12-11T07:18:19.691Z,90.37
2016-12-11T07:19:00.229Z,90.56
2016-12-11T07:19:40.767Z,90.32
2016-12-11T07:20:21.302Z,90.42
2016-12-11T07:21:01.839Z,90.37
2016-12-11T07:21:42.535Z,90.18
2016-12-11T07:22:23.076Z,90.56
2016-12-11T07:23:03.615Z,91.03
2016-12-11T07:23:44.143Z,90.84
2016-12-11T07:24:24.685Z,90.75
2016-12-11T07:25:05.220Z,91.32
2016-12-11T07:25:45.761Z,91.13
2016-12-11T07:26:26.289Z,91.22
2016-12-11T07:27:06.828Z,91.13
2016-12-11T07:27:47.360Z,90.84
2016-12-11T07:28:27.897Z,90.75
2016-12-11T07:29:08.587Z,91.13
2016-12-11T07:29:49.125Z,91.03
2016-12-11T07:30:29.667Z,91.22
2016-12-11T07:31:10.205Z,91.03
2016-12-11T07:31:50.741Z,91.22
2016-12-11T07:32:31.273Z,91.22
2016-12-11T07:33:11.804Z,91.22
2016-12-11T07:33:52.342Z,90.94
2016-12-11T07:34:32.877Z,90.94
2016-12-11T07:35:13.645Z,90.94
2016-12-11T07:35:54.183Z,91.42
2016-12-11T07:36:34.728Z,91.7
2016-12-11T07:37:15.261Z,91.42
2016-12-11T07:37:55.801Z,91.32
2016-12-11T07:38:36.338Z,91.32
2016-12-11T07:39:17.019Z,91.32
2016-12-11T07:39:57.581Z,91.61
2016-12-11T07:40:38.118Z,90.94
2016-12-11T07:41:18.706Z,91.22
2016-12-11T07:41:59.244Z,90.84
2016-12-11T07:42:39.780Z,90.56
2016-12-11T07:43:20.326Z,90.66
2016-12-11T07:44:02.074Z,90.66
2016-12-11T07:44:42.603Z,90.75
2016-12-11T07:45:23.131Z,91.03
2016-12-11T07:46:03.665Z,91.03
2016-12-11T07:46:44.203Z,90.56
2016-12-11T07:47:24.740Z,90.94
2016-12-11T07:48:05.276Z,90.56
2016-12-11T07:48:45.821Z,90.37
2016-12-11T07:49:26.358Z,90.28
2016-12-11T07:50:06.886Z,90.56
2016-12-11T07:50:47.430Z,90.75
2016-12-11T07:51:27.981Z,90.28
2016-12-11T07:52:08.514Z,90.47
2016-12-11T07:52:49.045Z,90.66
2016-12-11T07:53:29.567Z,90.56
2016-12-11T07:54:10.103Z,90.66
2016-12-11T07:54:50.637Z,90.56
2016-12-11T07:55:31.184Z,90.56
2016-12-11T07:56:11.714Z,90.75
2016-12-11T07:56:52.238Z,90.75
2016-12-11T07:57:32.775Z,90.08
2016-12-11T07:58:13.308Z,90.08
2016-12-11T07:58:53.828Z,89.89
2016-12-11T07:59:34.373Z,90.08
2016-12-11T08:00:14.941Z,90.18
2016-12-11T08:00:55.443Z,90.56
2016-12-11T08:01:35.995Z,90.56
2016-12-11T08:02:16.510Z,90.37
2016-12-11T08:02:57.045Z,90.56
2016-12-11T08:03:37.575Z,90.75
2016-12-11T08:04:18.292Z,90.56
2016-12-11T08:04:58.824Z,90.08
2016-12-11T08:05:39.393Z,90.75
2016-12-11T08:06:19.923Z,90.47
2016-12-11T08:07:00.454Z,90.56
2016-12-11T08:07:41.003Z,90.47
2016-12-11T08:08:21.530Z,90.28
2016-12-11T08:09:02.064Z,90.47
2016-12-11T08:09:42.599Z,90.47
2016-12-11T08:10:23.126Z,90.28
2016-12-11T08:11:03.676Z,90.56
2016-12-11T08:11:44.203Z,90.56
2016-12-11T08:12:24.767Z,90.37
2016-12-11T08:13:05.308Z,90.56
2016-12-11T08:13:45.859Z,90.56
2016-12-11T08:14:26.379Z,90.56
2016-12-11T08:15:06.919Z,90.56
2016-12-11T08:15:47.461Z,90.75
2016-12-11T08:16:28.014Z,90.75
2016-12-11T08:17:08.557Z,90.75
2016-12-11T08:17:49.080Z,91.03
2016-12-11T08:18:29.611Z,91.03
2016-12-11T08:19:10.140Z,91.13
2016-12-11T08:19:50.669Z,90.94
2016-12-11T08:20:31.221Z,91.03
2016-12-11T08:21:11.763Z,91.13
2016-12-11T08:21:52.303Z,90.75
2016-12-11T08:22:32.834Z,90.94
2016-12-11T08:23:13.373Z,90.75
2016-12-11T08:23:53.912Z,90.94
2016-12-11T08:24:34.440Z,90.84
2016-12-11T08:25:14.967Z,90.94
2016-12-11T08:25:55.493Z,90.56
2016-12-11T08:26:36.017Z,90.66
2016-12-11T08:27:16.548Z,90.75
2016-12-11T08:27:57.095Z,90.66
2016-12-11T08:28:37.644Z,91.32
2016-12-11T08:29:18.320Z,90.75
2016-12-11T08:29:58.849Z,90.75
2016-12-11T08:30:39.400Z,91.22
2016-12-11T08:31:19.931Z,90.94
2016-12-11T08:32:00.464Z,91.32
2016-12-11T08:32:40.999Z,91.22
2016-12-11T08:33:21.522Z,91.22
2016-12-11T08:34:02.055Z,91.03
2016-12-11T08:34:42.592Z,91.13
2016-12-11T08:35:23.132Z,91.03
2016-12-11T08:36:03.678Z,91.13
2016-12-11T08:36:44.219Z,91.32
2016-12-11T08:37:24.750Z,91.03
2016-12-11T08:38:05.277Z,91.03
2016-12-11T08:38:45.815Z,91.13
2016-12-11T08:39:26.343Z,91.13
2016-12-11T08:40:06.879Z,91.13
2016-12-11T08:40:47.522Z,90.99
2016-12-11T08:41:28.029Z,90.94
2016-12-11T08:42:08.570Z,90.84
2016-12-11T08:42:49.099Z,90.99
2016-12-11T08:43:29.635Z,91.22
2016-12-11T08:44:10.172Z,90.84
2016-12-11T08:44:50.704Z,91.13
2016-12-11T08:45:31.252Z,90.99
2016-12-11T08:46:11.805Z,90.99
2016-12-11T08:46:52.310Z,91.13
2016-12-11T08:47:32.846Z,90.99
2016-12-11T08:48:13.385Z,90.84
2016-12-11T08:48:53.924Z,90.8
2016-12-11T08:49:34.456Z,90.56
2016-12-11T08:50:14.983Z,90.56
2016-12-11T08:50:55.521Z,90.75
2016-12-11T08:51:36.065Z,90.8
2016-12-11T08:52:16.587Z,90.99
2016-12-11T08:52:57.110Z,90.7
2016-12-11T08:53:37.655Z,90.66
2016-12-11T08:54:18.252Z,90.7
2016-12-11T08:54:58.790Z,91.08
2016-12-11T08:55:39.312Z,90.94
2016-12-11T08:56:19.845Z,91.27
2016-12-11T08:57:00.387Z,90.61
2016-12-11T08:57:40.921Z,90.61
2016-12-11T08:58:21.446Z,90.32
2016-12-11T08:59:01.974Z,90.84
2016-12-11T08:59:42.498Z,90.51
2016-12-11T09:00:23.022Z,90.51
2016-12-11T09:01:03.564Z,90.42
2016-12-11T09:01:44.085Z,90.32
2016-12-11T09:02:24.617Z,90.32
2016-12-11T09:03:05.212Z,90.32
2016-12-11T09:03:45.749Z,90.42
2016-12-11T09:04:26.301Z,90.42
2016-12-11T09:05:06.839Z,90.51
2016-12-11T09:05:47.388Z,90.7
2016-12-11T09:06:27.917Z,90.8